Time,TemperatureF,DewpointF,PressureIn,WindDirection,WindDirectionDegrees,WindSpeedMPH,WindSpeedGustMPH,Humidity,HourlyPrecipIn,Conditions,Clouds,dailyrainin,SoftwareType,DateUTC
2013-09-10 01:22:00,61.0,51.0,-100.00,South,174,3.0,4.0,70,0.00,,,0.00,,2013-09-10 08:22:00,
2013-09-10 01:32:00,61.0,51.0,-100.00,South,174,3.0,4.0,70,0.00,,,0.00,,2013-09-10 08:32:00,
2013-09-10 01:52:00,60.0,51.0,-100.00,ESE,109,3.0,4.0,73,0.00,,,0.00,,2013-09-10 08:52:00,
2013-09-10 02:02:00,60.0,51.0,-100.00,ESE,109,3.0,4.0,73,0.00,,,0.00,,2013-09-10 09:02:00,
2013-09-10 02:21:00,59.0,51.0,-100.00,ESE,112,2.0,2.0,76,0.00,,,0.00,,2013-09-10 09:21:00,
2013-09-10 02:33:00,59.0,51.0,-100.00,ESE,112,2.0,2.0,76,0.00,,,0.00,,2013-09-10 09:33:00,
2013-09-10 02:54:00,58.0,52.0,-100.00,SSE,161,2.0,2.0,79,0.00,,,0.00,,2013-09-10 09:54:00,
2013-09-10 03:03:00,58.0,52.0,-100.00,SSE,161,2.0,2.0,79,0.00,,,0.00,,2013-09-10 10:03:00,
2013-09-10 04:22:00,57.0,51.0,-100.00,SSW,209,1.0,2.0,80,0.00,,,0.00,,2013-09-10 11:22:00,
2013-09-10 04:33:00,57.0,51.0,-100.00,SSW,209,1.0,2.0,80,0.00,,,0.00,,2013-09-10 11:33:00,
2013-09-10 05:52:00,54.0,50.0,-100.00,SE,140,1.0,2.0,86,0.00,,,0.00,,2013-09-10 12:52:00,
2013-09-10 06:01:00,54.0,50.0,-100.00,SE,140,1.0,2.0,86,0.00,,,0.00,,2013-09-10 13:01:00,
2013-09-10 06:52:00,55.0,51.0,-100.00,SSW,202,0.0,0.0,88,0.00,,,0.00,,2013-09-10 13:52:00,
2013-09-10 07:02:00,55.0,51.0,-100.00,SSW,202,0.0,0.0,88,0.00,,,0.00,,2013-09-10 14:02:00,
2013-09-10 09:23:00,63.0,53.0,-100.00,SW,229,3.0,4.0,70,0.00,,,0.00,,2013-09-10 16:23:00,
2013-09-10 09:33:00,63.0,53.0,-100.00,SW,229,3.0,4.0,70,0.00,,,0.00,,2013-09-10 16:33:00,
2013-09-10 10:23:00,69.0,53.0,-100.00,SSE,150,4.0,5.0,55,0.00,,,0.00,,2013-09-10 17:23:00,
2013-09-10 10:33:00,69.0,53.0,-100.00,SSE,150,4.0,5.0,55,0.00,,,0.00,,2013-09-10 17:33:00,
2013-09-10 10:52:00,72.0,53.0,-100.00,East,79,1.0,2.0,51,0.00,,,0.00,,2013-09-10 17:52:00,
2013-09-10 11:02:00,72.0,53.0,-100.00,East,79,1.0,2.0,51,0.00,,,0.00,,2013-09-10 18:02:00,
2013-09-10 11:21:00,72.0,53.0,-100.00,NW,319,4.0,5.0,50,0.00,,,0.00,,2013-09-10 18:21:00,
2013-09-10 11:32:00,72.0,53.0,-100.00,NW,319,4.0,5.0,50,0.00,,,0.00,,2013-09-10 18:32:00,
2013-09-10 11:52:00,76.0,53.0,-100.00,WNW,289,3.0,4.0,45,0.00,,,0.00,,2013-09-10 18:52:00,
2013-09-10 12:02:00,76.0,53.0,-100.00,WNW,289,3.0,4.0,45,0.00,,,0.00,,2013-09-10 19:02:00,
2013-09-10 12:21:00,77.0,53.0,-100.00,WSW,256,4.0,7.0,43,0.00,,,0.00,,2013-09-10 19:21:00,
2013-09-10 12:32:00,77.0,53.0,-100.00,WSW,256,4.0,7.0,43,0.00,,,0.00,,2013-09-10 19:32:00,
2013-09-10 12:52:00,79.0,52.0,-100.00,West,260,4.0,9.0,39,0.00,,,0.00,,2013-09-10 19:52:00,
2013-09-10 13:02:00,79.0,52.0,-100.00,West,260,4.0,9.0,39,0.00,,,0.00,,2013-09-10 20:02:00,
2013-09-10 13:21:00,80.0,51.0,-100.00,West,274,4.0,6.0,37,0.00,,,0.00,,2013-09-10 20:21:00,
2013-09-10 13:32:00,80.0,51.0,-100.00,West,274,4.0,6.0,37,0.00,,,0.00,,2013-09-10 20:32:00,
2013-09-10 13:52:00,81.0,49.0,-100.00,WNW,289,6.0,8.0,33,0.00,,,0.00,,2013-09-10 20:52:00,
2013-09-10 14:02:00,81.0,49.0,-100.00,WNW,289,6.0,8.0,33,0.00,,,0.00,,2013-09-10 21:02:00,
2013-09-10 14:23:00,82.0,48.0,-100.00,NE,34,5.0,9.0,31,0.00,,,0.00,,2013-09-10 21:23:00,
2013-09-10 14:34:00,82.0,48.0,-100.00,NE,34,5.0,9.0,31,0.00,,,0.00,,2013-09-10 21:34:00,
2013-09-10 14:54:00,83.0,47.0,-100.00,NE,51,2.0,3.0,28,0.00,,,0.00,,2013-09-10 21:54:00,
2013-09-10 15:04:00,83.0,47.0,-100.00,NE,51,2.0,3.0,28,0.00,,,0.00,,2013-09-10 22:04:00,
2013-09-10 15:24:00,86.0,48.0,-100.00,West,261,2.0,5.0,27,0.00,,,0.00,,2013-09-10 22:24:00,
2013-09-10 15:33:00,86.0,48.0,-100.00,West,261,2.0,5.0,27,0.00,,,0.00,,2013-09-10 22:33:00,
2013-09-10 15:54:00,85.0,47.0,-100.00,WNW,292,3.0,5.0,27,0.00,,,0.00,,2013-09-10 22:54:00,
2013-09-10 16:03:00,85.0,47.0,-100.00,WNW,292,3.0,5.0,27,0.00,,,0.00,,2013-09-10 23:03:00,
2013-09-10 16:22:00,84.0,47.0,-100.00,North,353,3.0,8.0,28,0.00,,,0.00,,2013-09-10 23:22:00,
2013-09-10 16:34:00,84.0,47.0,-100.00,North,353,3.0,8.0,28,0.00,,,0.00,,2013-09-10 23:34:00,
2013-09-10 16:53:00,85.0,46.0,-100.00,NNW,330,6.0,8.0,26,0.00,,,0.00,,2013-09-10 23:53:00,
2013-09-10 17:02:00,85.0,46.0,-100.00,NNW,330,6.0,8.0,26,0.00,,,0.00,,2013-09-11 00:02:00,
2013-09-10 17:22:00,84.0,44.0,-100.00,WNW,289,8.0,10.0,24,0.00,,,0.00,,2013-09-11 00:22:00,
2013-09-10 17:32:00,84.0,44.0,-100.00,WNW,289,8.0,10.0,24,0.00,,,0.00,,2013-09-11 00:32:00,
2013-09-10 17:52:00,85.0,44.0,-100.00,NNW,337,11.0,13.0,24,0.00,,,0.00,,2013-09-11 00:52:00,
2013-09-10 18:02:00,85.0,44.0,-100.00,NNW,337,11.0,13.0,24,0.00,,,0.00,,2013-09-11 01:02:00,
2013-09-10 18:21:00,84.0,44.0,-100.00,NW,313,8.0,10.0,24,0.00,,,0.00,,2013-09-11 01:21:00,
2013-09-10 18:32:00,84.0,44.0,-100.00,NW,313,8.0,10.0,24,0.00,,,0.00,,2013-09-11 01:32:00,
2013-09-10 18:53:00,83.0,44.0,-100.00,NW,322,8.0,9.0,25,0.00,,,0.00,,2013-09-11 01:53:00,
2013-09-10 19:02:00,83.0,44.0,-100.00,NW,322,8.0,9.0,25,0.00,,,0.00,,2013-09-11 02:02:00,
2013-09-10 19:22:00,81.0,44.0,-100.00,NNW,328,6.0,8.0,27,0.00,,,0.00,,2013-09-11 02:22:00,
2013-09-10 19:32:00,81.0,44.0,-100.00,NNW,328,6.0,8.0,27,0.00,,,0.00,,2013-09-11 02:32:00,
2013-09-10 19:52:00,78.0,43.0,-100.00,NNW,344,7.0,8.0,28,0.00,,,0.00,,2013-09-11 02:52:00,
2013-09-10 20:02:00,78.0,43.0,-100.00,NNW,344,7.0,8.0,28,0.00,,,0.00,,2013-09-11 03:02:00,
2013-09-10 20:54:00,76.0,42.0,-100.00,North,357,5.0,5.0,30,0.00,,,0.00,,2013-09-11 03:54:00,
2013-09-10 21:04:00,76.0,42.0,-100.00,North,357,5.0,5.0,30,0.00,,,0.00,,2013-09-11 04:04:00,